Airfield :
LOGIN :

Register | Disclaimer

   EN    FR    IT 

 










Legend :    VFR   Marginal VFR   IFR   Intensive IFR   Very Intensive IFR
Visi :
Ceiling :
>= 8 km
>= 3000ft
5 to 8 km
1000 to 3000 ft
1500m to 5 km
500 to 1000 ft
800 to 1500m
200 to 500 ft
< 800m
< 200 ft
Symbols :   Thunderstorms  Fog  Heavy snow  Heavy precipitations  Wind > 20 kt
SIGMETs :     Misc.  Thunderstorms  Icing  Turbulence  Mountain Waves  Volcanic Ashes







- Airport Elevation : 659 ft
- IATA code : LGG


EBLG - Liège

CURRENT METAR :
  • 180720Z 02004KT 5000 BR BKN007 13/12 Q1023 TEMPO 4000 BR

EXPIRED METARs :
  • 180650Z 03005KT 360V060 5000 BR BKN007 13/12 Q1023 TEMPO 4000 BR
  • 180620Z 01005KT 5000 BR BKN007 13/12 Q1023 TEMPO 4000 BR
  • 180550Z 01005KT 5000 BR SCT007 BKN020 13/12 Q1023 NOSIG
  • 180520Z 01005KT 6000 BKN020 13/12 Q1022 NOSIG
  • 180450Z 36004KT 340V040 5000 BR BKN017 13/12 Q1022 NOSIG

TAF TAF EBLG
Valid from the 18 at 06:00 until the 19 at 12:00 UTC


180501Z 1806/1912 03007KT 8000 FEW012 SCT020
PROB40
TEMPO 1806/1809 4000 BR BKN008
PROB30
TEMPO 1900/1906 4000 BR BKN009
No reported NOTAMs for that airfield.



MET'MAP, your aeronautical weather chart ! - Copyright ORBIFLY December 2007 - Disclaimer

ORBIFLY MET'MAP TEAM :

Programming & Development : Alexandra Zaïnal
Concept & Development : Baudouin d'Aumeries
Co-Development & Prog : Marc-Olivier Méhu
Technical & hardware support : Manuel Goepfert

Contact : metmap@orbifly.com




SOURCES & CREDITS :

   NOAA